»·PEaware :: N13W KLAX-KSNA

N13W :: KLAX-KSNA

FLIGHT INFORMATION

Flight Status: Arrived
Operator: Privately registered:
United States
More flights under this callsign
Pilot: Will N. (25416)
Aircraft: CESSNA 172 SKYHAWK
(C172)
More flights by this aircraft type
Origin: KLAX Los Angeles Intl
United States
Destination: KSNA John Wayne-Orange Co
United States
More flights between these airports :: More routes between these airports
Route: +SLI8 SLI
File this flight plan on PilotEdge
Remarks: TEC LAXP55
Altitude:
(Current/Filed)
4,000ft
Speed:
(Current/Filed)
120kts
Departed: 11-Sep-19 07:00 PM
Arrived: 11-Sep-19 07:43 PM
Distance/Time
Traveled:
31nm/0:42
Distance/Time
To Go:
Arrived

Flight Plot

Page will automatically refresh every two minutes.


Map Options




Map Legend


Flown Route
Filed Route
Departure Airport
Arrival Airport
Navaid (VOR, NDB)
Fix

Horizontal Profiles

Position Reports

Time Latitude Longitude Heading Altitude Ground
Speed
11-Sep-19 18:18 33.934137 -118.395574 175 106ft 0kts
11-Sep-19 18:19 33.934137 -118.395574 175 106ft 0kts
11-Sep-19 18:20 33.934137 -118.395574 175 106ft 0kts
11-Sep-19 18:21 33.934137 -118.395574 175 106ft 0kts
11-Sep-19 18:27 33.934137 -118.395574 175 106ft 0kts
11-Sep-19 18:28 33.934137 -118.395574 175 106ft 0kts
11-Sep-19 18:29 33.934137 -118.395574 175 106ft 0kts
11-Sep-19 18:30 33.934137 -118.395574 175 106ft 0kts
11-Sep-19 18:31 33.934137 -118.395574 175 106ft 0kts
11-Sep-19 18:32 33.934137 -118.395574 175 106ft 0kts
11-Sep-19 18:33 33.934137 -118.395574 175 106ft 0kts
11-Sep-19 18:34 33.934137 -118.395574 175 106ft 0kts
11-Sep-19 18:35 33.934137 -118.395574 175 106ft 0kts
11-Sep-19 18:36 33.934137 -118.395574 175 106ft 0kts
11-Sep-19 18:37 33.934137 -118.395574 175 106ft 0kts
11-Sep-19 18:38 33.934137 -118.395574 175 106ft 0kts
11-Sep-19 18:39 33.934137 -118.395574 175 106ft 0kts
11-Sep-19 18:40 33.934137 -118.395574 175 106ft 0kts
11-Sep-19 18:41 33.934137 -118.395574 175 106ft 0kts
11-Sep-19 18:42 33.934137 -118.395574 175 106ft 0kts
11-Sep-19 18:43 33.934137 -118.395574 175 106ft 0kts
11-Sep-19 18:44 33.934137 -118.395574 175 106ft 0kts
11-Sep-19 18:45 33.934137 -118.395574 175 106ft 0kts
11-Sep-19 18:46 33.934137 -118.395574 175 106ft 0kts
11-Sep-19 18:47 33.934137 -118.395574 175 106ft 0kts
11-Sep-19 18:47 33.934137 -118.395574 175 106ft 0kts
11-Sep-19 18:49 33.934137 -118.395574 175 106ft 0kts
11-Sep-19 18:50 33.934137 -118.395574 175 106ft 0kts
11-Sep-19 18:50 33.934137 -118.395574 175 106ft 0kts
11-Sep-19 18:51 33.934069 -118.395300 50 106ft 0kts
11-Sep-19 18:53 33.934069 -118.395300 50 106ft 0kts
11-Sep-19 18:53 33.934456 -118.394136 79 104ft 8kts
11-Sep-19 18:54 33.935156 -118.392147 83 103ft 9kts
11-Sep-19 18:55 33.935553 -118.388327 83 102ft 12kts
11-Sep-19 18:56 33.936056 -118.383423 77 98ft 14kts
11-Sep-19 18:57 33.936449 -118.382798 6 98ft 0kts
11-Sep-19 18:58 33.936888 -118.382811 346 98ft 9kts
11-Sep-19 18:59 33.935749 -118.400623 262 557ft 78kts
11-Sep-19 19:00 33.933013 -118.426609 262 1535ft 78kts
11-Sep-19 19:01 33.922094 -118.448526 213 2438ft 86kts
11-Sep-19 19:02 33.899663 -118.461890 212 3275ft 89kts
11-Sep-19 19:03 33.876886 -118.475368 212 3982ft 96kts
11-Sep-19 19:04 33.848697 -118.492934 213 3999ft 123kts
11-Sep-19 19:05 33.816922 -118.491532 142 3998ft 134kts
11-Sep-19 19:06 33.787873 -118.462962 142 3997ft 131kts
11-Sep-19 19:07 33.760077 -118.435591 142 4007ft 128kts
11-Sep-19 19:08 33.732359 -118.408280 142 4010ft 128kts
11-Sep-19 19:09 33.709205 -118.378015 103 4011ft 122kts
11-Sep-19 19:10 33.700565 -118.338195 101 4009ft 122kts
11-Sep-19 19:11 33.691991 -118.298451 102 4007ft 122kts
11-Sep-19 19:12 33.694452 -118.260328 54 4006ft 117kts
11-Sep-19 19:13 33.709787 -118.225011 59 4005ft 121kts
11-Sep-19 19:14 33.724814 -118.188888 69 4004ft 119kts
11-Sep-19 19:15 33.739518 -118.153197 68 4003ft 119kts
11-Sep-19 19:16 33.754292 -118.117453 68 4002ft 118kts
11-Sep-19 19:17 33.769833 -118.082393 64 4000ft 118kts
11-Sep-19 19:18 33.784201 -118.047446 72 3999ft 116kts
11-Sep-19 19:19 33.798069 -118.012339 62 3990ft 118kts
11-Sep-19 19:20 33.812313 -117.976785 60 3990ft 117kts
11-Sep-19 19:21 33.826791 -117.941545 61 3989ft 117kts
11-Sep-19 19:22 33.841245 -117.906363 61 3989ft 116kts
11-Sep-19 19:23 33.855632 -117.871309 61 3988ft 116kts
11-Sep-19 19:24 33.870037 -117.836174 61 3986ft 116kts
11-Sep-19 19:25 33.884404 -117.801088 61 3984ft 116kts
11-Sep-19 19:26 33.898652 -117.766257 61 3981ft 116kts
11-Sep-19 19:27 33.913425 -117.730096 61 3621ft 127kts
11-Sep-19 19:28 33.935769 -117.702530 24 3486ft 111kts
11-Sep-19 19:29 33.963794 -117.684835 22 3489ft 115kts
11-Sep-19 19:30 33.977440 -117.704527 233 3489ft 119kts
11-Sep-19 19:31 33.944039 -117.712509 183 3488ft 126kts
11-Sep-19 19:32 33.909570 -117.718822 209 3486ft 125kts
11-Sep-19 19:33 33.878478 -117.739423 210 3336ft 132kts
11-Sep-19 19:34 33.846996 -117.760042 210 3296ft 125kts
11-Sep-19 19:35 33.814581 -117.780692 210 2794ft 129kts
11-Sep-19 19:36 33.783138 -117.800674 210 2321ft 129kts
11-Sep-19 19:37 33.752114 -117.820385 210 1647ft 117kts
11-Sep-19 19:38 33.727037 -117.836282 210 1116ft 83kts
11-Sep-19 19:39 33.707832 -117.848469 210 672ft 74kts
11-Sep-19 19:40 33.691459 -117.858845 210 315ft 64kts
11-Sep-19 19:41 33.676382 -117.868428 208 60ft 50kts
11-Sep-19 19:42 33.674249 -117.870814 299 60ft 0kts
11-Sep-19 19:43 33.674256 -117.870829 298 60ft 1kts
11-Sep-19 19:44 33.672621 -117.873054 336 60ft 3kts
11-Sep-19 19:45 33.672684 -117.873052 29 60ft 0kts
11-Sep-19 19:46 33.672684 -117.873052 29 60ft 0kts
11-Sep-19 19:47 33.672684 -117.873052 29 60ft 0kts
11-Sep-19 19:48 33.672684 -117.873052 29 60ft 0kts

Navigation Log

Ident Type
Flight plan parsing failed, navigation log unavailable